sensor_id;sensor_type;location;lat;lon;timestamp;pressure;altitude;pressure_sealevel;temperature;humidity
46464;BME280;32161;48.148;-1.554;2023-01-29T00:02:04;102563.97;;;5.31;77.63
46464;BME280;32161;48.148;-1.554;2023-01-29T00:04:32;102565.56;;;5.24;77.31
46464;BME280;32161;48.148;-1.554;2023-01-29T00:06:59;102571.81;;;5.24;77.37
46464;BME280;32161;48.148;-1.554;2023-01-29T00:09:27;102560.84;;;5.26;77.59
46464;BME280;32161;48.148;-1.554;2023-01-29T00:11:56;102563.56;;;5.26;78.09
46464;BME280;32161;48.148;-1.554;2023-01-29T00:14:24;102563.56;;;5.26;77.74
46464;BME280;32161;48.148;-1.554;2023-01-29T00:16:52;102555.34;;;5.27;77.43
46464;BME280;32161;48.148;-1.554;2023-01-29T00:19:21;102547.09;;;5.29;77.16
46464;BME280;32161;48.148;-1.554;2023-01-29T00:21:49;102549.09;;;5.27;76.80
46464;BME280;32161;48.148;-1.554;2023-01-29T00:24:16;102549.09;;;5.27;77.06
46464;BME280;32161;48.148;-1.554;2023-01-29T00:26:44;102551.06;;;5.25;77.24
46464;BME280;32161;48.148;-1.554;2023-01-29T00:29:12;102547.44;;;5.16;77.46
46464;BME280;32161;48.148;-1.554;2023-01-29T00:31:39;102541.22;;;5.16;77.98
46464;BME280;32161;48.148;-1.554;2023-01-29T00:34:10;102540.03;;;4.90;78.62
46464;BME280;32161;48.148;-1.554;2023-01-29T00:36:39;102538.47;;;4.98;78.91
46464;BME280;32161;48.148;-1.554;2023-01-29T00:39:09;102543.13;;;4.96;78.84
46464;BME280;32161;48.148;-1.554;2023-01-29T00:41:37;102544.41;;;5.01;79.00
46464;BME280;32161;48.148;-1.554;2023-01-29T00:44:22;102541.72;;;5.01;78.52
46464;BME280;32161;48.148;-1.554;2023-01-29T00:47:07;102546.84;;;4.95;78.58
46464;BME280;32161;48.148;-1.554;2023-01-29T00:49:56;102538.72;;;5.04;79.06
46464;BME280;32161;48.148;-1.554;2023-01-29T00:52:25;102533.72;;;5.09;78.19
46464;BME280;32161;48.148;-1.554;2023-01-29T00:54:55;102537.13;;;5.11;77.70
46464;BME280;32161;48.148;-1.554;2023-01-29T00:57:24;102533.03;;;5.07;77.95
46464;BME280;32161;48.148;-1.554;2023-01-29T00:59:52;102543.50;;;5.10;77.93
46464;BME280;32161;48.148;-1.554;2023-01-29T01:02:20;102536.13;;;5.12;77.94
46464;BME280;32161;48.148;-1.554;2023-01-29T01:05:08;102535.56;;;5.09;77.69
46464;BME280;32161;48.148;-1.554;2023-01-29T01:07:40;102542.66;;;5.10;77.71
46464;BME280;32161;48.148;-1.554;2023-01-29T01:10:12;102540.66;;;5.12;78.18
46464;BME280;32161;48.148;-1.554;2023-01-29T01:12:53;102537.50;;;5.17;77.79
46464;BME280;32161;48.148;-1.554;2023-01-29T01:15:22;102535.81;;;5.16;77.55
46464;BME280;32161;48.148;-1.554;2023-01-29T01:17:52;102533.41;;;4.85;78.18
46464;BME280;32161;48.148;-1.554;2023-01-29T01:20:20;102537.34;;;4.90;77.92
46464;BME280;32161;48.148;-1.554;2023-01-29T01:22:49;102542.16;;;4.97;78.31
46464;BME280;32161;48.148;-1.554;2023-01-29T01:25:17;102530.22;;;4.99;78.13
46464;BME280;32161;48.148;-1.554;2023-01-29T01:27:45;102534.63;;;5.00;77.90
46464;BME280;32161;48.148;-1.554;2023-01-29T01:30:14;102537.66;;;4.87;78.36
46464;BME280;32161;48.148;-1.554;2023-01-29T01:32:42;102527.84;;;4.96;78.24
46464;BME280;32161;48.148;-1.554;2023-01-29T01:35:11;102538.00;;;5.02;78.13
46464;BME280;32161;48.148;-1.554;2023-01-29T01:37:40;102536.31;;;5.01;77.98
46464;BME280;32161;48.148;-1.554;2023-01-29T01:40:14;102533.78;;;5.00;78.18
46464;BME280;32161;48.148;-1.554;2023-01-29T01:42:43;102535.47;;;5.01;77.47
46464;BME280;32161;48.148;-1.554;2023-01-29T01:45:22;102539.84;;;5.02;77.83
46464;BME280;32161;48.148;-1.554;2023-01-29T01:47:54;102547.25;;;5.00;77.79
46464;BME280;32161;48.148;-1.554;2023-01-29T01:50:26;102553.16;;;5.03;77.65
46464;BME280;32161;48.148;-1.554;2023-01-29T01:53:00;102560.97;;;5.06;77.18
46464;BME280;32161;48.148;-1.554;2023-01-29T01:55:32;102565.94;;;4.74;77.70
46464;BME280;32161;48.148;-1.554;2023-01-29T01:58:05;102561.66;;;4.81;77.81
46464;BME280;32161;48.148;-1.554;2023-01-29T02:00:35;102572.28;;;4.73;77.73
46464;BME280;32161;48.148;-1.554;2023-01-29T02:03:03;102579.13;;;4.77;78.14
46464;BME280;32161;48.148;-1.554;2023-01-29T02:05:48;102586.25;;;4.49;78.44
46464;BME280;32161;48.148;-1.554;2023-01-29T02:08:41;102576.22;;;4.41;79.32
46464;BME280;32161;48.148;-1.554;2023-01-29T02:11:30;102552.81;;;4.41;79.65
46464;BME280;32161;48.148;-1.554;2023-01-29T02:13:58;102547.81;;;4.56;79.29
46464;BME280;32161;48.148;-1.554;2023-01-29T02:16:26;102539.84;;;4.64;78.83
46464;BME280;32161;48.148;-1.554;2023-01-29T02:18:54;102535.84;;;4.78;78.04
46464;BME280;32161;48.148;-1.554;2023-01-29T02:22:05;102542.19;;;4.87;77.58
46464;BME280;32161;48.148;-1.554;2023-01-29T02:25:08;102551.00;;;4.89;77.75
46464;BME280;32161;48.148;-1.554;2023-01-29T02:28:14;102540.44;;;4.96;77.96
46464;BME280;32161;48.148;-1.554;2023-01-29T02:30:52;102536.91;;;4.95;77.36
46464;BME280;32161;48.148;-1.554;2023-01-29T02:33:35;102537.09;;;4.84;77.48
46464;BME280;32161;48.148;-1.554;2023-01-29T02:36:19;102530.72;;;4.85;77.06
46464;BME280;32161;48.148;-1.554;2023-01-29T02:39:00;102527.88;;;4.86;77.28
46464;BME280;32161;48.148;-1.554;2023-01-29T02:41:36;102533.81;;;4.90;77.56
46464;BME280;32161;48.148;-1.554;2023-01-29T02:44:19;102521.63;;;4.86;77.26
46464;BME280;32161;48.148;-1.554;2023-01-29T02:46:58;102516.34;;;4.94;77.37
46464;BME280;32161;48.148;-1.554;2023-01-29T02:49:31;102529.53;;;4.97;77.16
46464;BME280;32161;48.148;-1.554;2023-01-29T02:52:04;102531.66;;;4.94;76.61
46464;BME280;32161;48.148;-1.554;2023-01-29T02:54:40;102521.75;;;4.94;76.89
46464;BME280;32161;48.148;-1.554;2023-01-29T02:57:16;102525.72;;;4.90;76.50
46464;BME280;32161;48.148;-1.554;2023-01-29T02:59:53;102517.66;;;4.90;76.30
46464;BME280;32161;48.148;-1.554;2023-01-29T03:02:29;102527.19;;;4.84;76.59
46464;BME280;32161;48.148;-1.554;2023-01-29T03:05:02;102506.47;;;4.85;76.77
46464;BME280;32161;48.148;-1.554;2023-01-29T03:07:36;102507.06;;;4.79;77.07
46464;BME280;32161;48.148;-1.554;2023-01-29T03:10:17;102510.47;;;4.81;77.28
46464;BME280;32161;48.148;-1.554;2023-01-29T03:12:52;102513.16;;;4.81;76.74
46464;BME280;32161;48.148;-1.554;2023-01-29T03:15:28;102499.69;;;4.81;76.91
46464;BME280;32161;48.148;-1.554;2023-01-29T03:18:07;102500.38;;;4.83;76.41
46464;BME280;32161;48.148;-1.554;2023-01-29T03:20:40;102497.41;;;4.76;76.72
46464;BME280;32161;48.148;-1.554;2023-01-29T03:23:17;102501.97;;;4.76;76.66
46464;BME280;32161;48.148;-1.554;2023-01-29T03:25:50;102496.75;;;4.74;76.51
46464;BME280;32161;48.148;-1.554;2023-01-29T03:28:39;102492.59;;;4.80;76.23
46464;BME280;32161;48.148;-1.554;2023-01-29T03:31:29;102500.13;;;4.76;76.40
46464;BME280;32161;48.148;-1.554;2023-01-29T03:34:18;102501.31;;;4.64;76.24
46464;BME280;32161;48.148;-1.554;2023-01-29T03:36:53;102504.75;;;4.56;76.33
46464;BME280;32161;48.148;-1.554;2023-01-29T03:39:26;102500.19;;;4.57;76.70
46464;BME280;32161;48.148;-1.554;2023-01-29T03:42:01;102506.03;;;4.52;76.67
46464;BME280;32161;48.148;-1.554;2023-01-29T03:44:40;102512.03;;;4.46;76.88
46464;BME280;32161;48.148;-1.554;2023-01-29T03:47:19;102503.13;;;4.26;76.95
46464;BME280;32161;48.148;-1.554;2023-01-29T03:49:58;102508.22;;;4.39;76.69
46464;BME280;32161;48.148;-1.554;2023-01-29T03:52:36;102506.75;;;4.45;76.13
46464;BME280;32161;48.148;-1.554;2023-01-29T03:55:13;102503.56;;;4.31;76.04
46464;BME280;32161;48.148;-1.554;2023-01-29T03:57:50;102508.06;;;4.40;76.24
46464;BME280;32161;48.148;-1.554;2023-01-29T04:00:25;102505.63;;;4.47;76.12
46464;BME280;32161;48.148;-1.554;2023-01-29T04:03:04;102507.03;;;4.51;75.87
46464;BME280;32161;48.148;-1.554;2023-01-29T04:05:42;102504.63;;;4.58;75.13
46464;BME280;32161;48.148;-1.554;2023-01-29T04:08:17;102514.09;;;4.62;75.18
46464;BME280;32161;48.148;-1.554;2023-01-29T04:10:48;102520.31;;;4.62;75.34
46464;BME280;32161;48.148;-1.554;2023-01-29T04:13:19;102514.94;;;4.62;75.13
46464;BME280;32161;48.148;-1.554;2023-01-29T04:15:53;102521.31;;;4.61;75.81
46464;BME280;32161;48.148;-1.554;2023-01-29T04:18:23;102522.16;;;4.62;75.89
46464;BME280;32161;48.148;-1.554;2023-01-29T04:20:51;102528.00;;;4.57;75.79
46464;BME280;32161;48.148;-1.554;2023-01-29T04:23:21;102526.28;;;4.56;75.88
46464;BME280;32161;48.148;-1.554;2023-01-29T04:25:59;102523.00;;;4.62;75.80
46464;BME280;32161;48.148;-1.554;2023-01-29T04:28:49;102520.16;;;4.64;75.13
46464;BME280;32161;48.148;-1.554;2023-01-29T04:31:23;102517.03;;;4.69;75.01
46464;BME280;32161;48.148;-1.554;2023-01-29T04:34:03;102519.59;;;4.70;75.12
46464;BME280;32161;48.148;-1.554;2023-01-29T04:36:40;102524.13;;;4.70;75.08
46464;BME280;32161;48.148;-1.554;2023-01-29T04:39:19;102519.59;;;4.70;75.20
46464;BME280;32161;48.148;-1.554;2023-01-29T04:41:53;102516.59;;;4.73;75.58
46464;BME280;32161;48.148;-1.554;2023-01-29T04:44:31;102522.97;;;4.72;75.24
46464;BME280;32161;48.148;-1.554;2023-01-29T04:47:11;102517.91;;;4.69;74.35
46464;BME280;32161;48.148;-1.554;2023-01-29T04:49:48;102514.50;;;4.67;75.27
46464;BME280;32161;48.148;-1.554;2023-01-29T04:52:30;102509.38;;;4.64;75.17
46464;BME280;32161;48.148;-1.554;2023-01-29T04:55:05;102514.50;;;4.67;75.59
46464;BME280;32161;48.148;-1.554;2023-01-29T04:57:43;102518.88;;;4.68;75.50
46464;BME280;32161;48.148;-1.554;2023-01-29T05:00:18;102529.50;;;4.70;75.48
46464;BME280;32161;48.148;-1.554;2023-01-29T05:02:47;102524.81;;;4.72;75.40
46464;BME280;32161;48.148;-1.554;2023-01-29T05:05:19;102519.44;;;4.72;76.04
46464;BME280;32161;48.148;-1.554;2023-01-29T05:07:48;102512.75;;;4.76;77.22
46464;BME280;32161;48.148;-1.554;2023-01-29T05:10:18;102510.88;;;4.76;76.43
46464;BME280;32161;48.148;-1.554;2023-01-29T05:12:51;102510.03;;;4.76;76.93
46464;BME280;32161;48.148;-1.554;2023-01-29T05:15:26;102498.59;;;4.74;76.53
46464;BME280;32161;48.148;-1.554;2023-01-29T05:17:56;102506.66;;;4.74;75.52
46464;BME280;32161;48.148;-1.554;2023-01-29T05:20:30;102505.66;;;4.75;75.71
46464;BME280;32161;48.148;-1.554;2023-01-29T05:22:58;102511.06;;;4.75;75.67
46464;BME280;32161;48.148;-1.554;2023-01-29T05:25:29;102507.50;;;4.74;76.58
46464;BME280;32161;48.148;-1.554;2023-01-29T05:27:57;102513.59;;;4.76;76.95
46464;BME280;32161;48.148;-1.554;2023-01-29T05:30:36;102512.19;;;4.72;76.37
46464;BME280;32161;48.148;-1.554;2023-01-29T05:33:11;102516.88;;;4.70;76.10
46464;BME280;32161;48.148;-1.554;2023-01-29T05:35:41;102513.34;;;4.70;76.08
46464;BME280;32161;48.148;-1.554;2023-01-29T05:38:09;102523.13;;;4.71;76.56
46464;BME280;32161;48.148;-1.554;2023-01-29T05:40:37;102521.13;;;4.73;77.21
46464;BME280;32161;48.148;-1.554;2023-01-29T05:43:11;102519.13;;;4.75;77.34
46464;BME280;32161;48.148;-1.554;2023-01-29T05:45:40;102520.81;;;4.76;77.40
46464;BME280;32161;48.148;-1.554;2023-01-29T05:48:07;102524.06;;;4.79;76.99
46464;BME280;32161;48.148;-1.554;2023-01-29T05:50:35;102531.59;;;4.76;75.77
46464;BME280;32161;48.148;-1.554;2023-01-29T05:53:04;102533.31;;;4.77;75.35
46464;BME280;32161;48.148;-1.554;2023-01-29T05:55:32;102536.59;;;4.71;75.47
46464;BME280;32161;48.148;-1.554;2023-01-29T05:57:59;102541.13;;;4.70;75.71
46464;BME280;32161;48.148;-1.554;2023-01-29T06:00:27;102542.25;;;4.68;75.75
46464;BME280;32161;48.148;-1.554;2023-01-29T06:02:55;102537.88;;;4.67;75.96
46464;BME280;32161;48.148;-1.554;2023-01-29T06:05:22;102535.75;;;4.70;76.13
46464;BME280;32161;48.148;-1.554;2023-01-29T06:07:50;102536.44;;;4.72;76.03
46464;BME280;32161;48.148;-1.554;2023-01-29T06:10:19;102538.28;;;4.72;76.18
46464;BME280;32161;48.148;-1.554;2023-01-29T06:12:47;102539.84;;;4.74;76.20
46464;BME280;32161;48.148;-1.554;2023-01-29T06:15:15;102543.22;;;4.76;76.84
46464;BME280;32161;48.148;-1.554;2023-01-29T06:17:44;102538.38;;;4.80;76.88
46464;BME280;32161;48.148;-1.554;2023-01-29T06:20:12;102531.16;;;4.80;77.36
46464;BME280;32161;48.148;-1.554;2023-01-29T06:22:40;102532.88;;;4.81;77.34
46464;BME280;32161;48.148;-1.554;2023-01-29T06:25:08;102549.88;;;4.82;76.13
46464;BME280;32161;48.148;-1.554;2023-01-29T06:27:37;102535.56;;;4.81;76.47
46464;BME280;32161;48.148;-1.554;2023-01-29T06:30:06;102533.84;;;4.80;76.28
46464;BME280;32161;48.148;-1.554;2023-01-29T06:32:34;102531.03;;;4.82;76.83
46464;BME280;32161;48.148;-1.554;2023-01-29T06:35:02;102538.81;;;4.85;76.03
46464;BME280;32161;48.148;-1.554;2023-01-29T06:37:30;102545.88;;;4.86;76.34
46464;BME280;32161;48.148;-1.554;2023-01-29T06:39:57;102547.03;;;4.83;77.32
46464;BME280;32161;48.148;-1.554;2023-01-29T06:42:25;102552.84;;;4.79;77.95
46464;BME280;32161;48.148;-1.554;2023-01-29T06:44:54;102551.63;;;4.73;78.03
46464;BME280;32161;48.148;-1.554;2023-01-29T06:47:22;102556.41;;;4.79;77.55
46464;BME280;32161;48.148;-1.554;2023-01-29T06:49:50;102544.19;;;4.85;76.85
46464;BME280;32161;48.148;-1.554;2023-01-29T06:52:18;102546.56;;;4.88;77.37
46464;BME280;32161;48.148;-1.554;2023-01-29T06:54:46;102551.00;;;4.89;77.24
46464;BME280;32161;48.148;-1.554;2023-01-29T06:57:13;102544.88;;;4.87;77.20
46464;BME280;32161;48.148;-1.554;2023-01-29T06:59:41;102548.59;;;4.86;77.92
46464;BME280;32161;48.148;-1.554;2023-01-29T07:02:10;102548.88;;;4.83;78.40
46464;BME280;32161;48.148;-1.554;2023-01-29T07:04:38;102542.63;;;4.82;78.31
46464;BME280;32161;48.148;-1.554;2023-01-29T07:07:06;102535.56;;;4.81;77.77
46464;BME280;32161;48.148;-1.554;2023-01-29T07:09:39;102535.69;;;4.80;77.84
46464;BME280;32161;48.148;-1.554;2023-01-29T07:12:07;102529.75;;;4.76;77.93
46464;BME280;32161;48.148;-1.554;2023-01-29T07:14:35;102536.31;;;4.74;78.71
46464;BME280;32161;48.148;-1.554;2023-01-29T07:17:03;102540.69;;;4.75;78.63
46464;BME280;32161;48.148;-1.554;2023-01-29T07:19:32;102541.41;;;4.77;78.60
46464;BME280;32161;48.148;-1.554;2023-01-29T07:21:59;102535.13;;;4.76;79.02
46464;BME280;32161;48.148;-1.554;2023-01-29T07:24:27;102539.56;;;4.77;78.46
46464;BME280;32161;48.148;-1.554;2023-01-29T07:26:55;102535.00;;;4.78;78.84
46464;BME280;32161;48.148;-1.554;2023-01-29T07:29:23;102539.38;;;4.79;78.87
46464;BME280;32161;48.148;-1.554;2023-01-29T07:31:50;102530.63;;;4.77;78.54
46464;BME280;32161;48.148;-1.554;2023-01-29T07:34:18;102536.31;;;4.74;77.92
46464;BME280;32161;48.148;-1.554;2023-01-29T07:36:47;102541.41;;;4.67;77.97
46464;BME280;32161;48.148;-1.554;2023-01-29T07:39:14;102539.72;;;4.66;77.34
46464;BME280;32161;48.148;-1.554;2023-01-29T07:41:42;102538.16;;;4.63;77.63
46464;BME280;32161;48.148;-1.554;2023-01-29T07:44:10;102537.47;;;4.61;78.67
46464;BME280;32161;48.148;-1.554;2023-01-29T07:46:37;102527.13;;;4.57;79.46
46464;BME280;32161;48.148;-1.554;2023-01-29T07:49:05;102537.78;;;4.58;79.66
46464;BME280;32161;48.148;-1.554;2023-01-29T07:51:32;102522.16;;;4.62;79.14
46464;BME280;32161;48.148;-1.554;2023-01-29T07:54:01;102524.16;;;4.60;78.59
46464;BME280;32161;48.148;-1.554;2023-01-29T07:56:29;102519.06;;;4.57;78.71
46464;BME280;32161;48.148;-1.554;2023-01-29T07:58:57;102521.06;;;4.55;79.66
46464;BME280;32161;48.148;-1.554;2023-01-29T08:01:24;102523.03;;;4.53;80.53
46464;BME280;32161;48.148;-1.554;2023-01-29T08:03:52;102525.88;;;4.51;80.16
46464;BME280;32161;48.148;-1.554;2023-01-29T08:06:19;102520.34;;;4.53;80.47
46464;BME280;32161;48.148;-1.554;2023-01-29T08:08:47;102526.72;;;4.61;79.62
46464;BME280;32161;48.148;-1.554;2023-01-29T08:11:16;102521.00;;;4.64;79.54
46464;BME280;32161;48.148;-1.554;2023-01-29T08:13:43;102517.03;;;4.69;81.54
46464;BME280;32161;48.148;-1.554;2023-01-29T08:16:11;102517.19;;;4.67;81.80
46464;BME280;32161;48.148;-1.554;2023-01-29T08:18:39;102518.03;;;4.68;82.35
46464;BME280;32161;48.148;-1.554;2023-01-29T08:21:09;102524.13;;;4.70;81.71
46464;BME280;32161;48.148;-1.554;2023-01-29T08:23:36;102520.25;;;4.72;81.38
46464;BME280;32161;48.148;-1.554;2023-01-29T08:26:04;102512.19;;;4.72;80.87
46464;BME280;32161;48.148;-1.554;2023-01-29T08:28:34;102514.47;;;4.77;79.97
46464;BME280;32161;48.148;-1.554;2023-01-29T08:31:04;102524.97;;;4.70;79.08
46464;BME280;32161;48.148;-1.554;2023-01-29T08:33:38;102517.72;;;4.71;78.47
46464;BME280;32161;48.148;-1.554;2023-01-29T08:36:08;102521.19;;;4.53;79.29
46464;BME280;32161;48.148;-1.554;2023-01-29T08:38:35;102521.06;;;4.55;79.28
46464;BME280;32161;48.148;-1.554;2023-01-29T08:41:03;102520.91;;;4.56;79.36
46464;BME280;32161;48.148;-1.554;2023-01-29T08:43:33;102522.41;;;4.69;79.29
46464;BME280;32161;48.148;-1.554;2023-01-29T08:46:03;102524.34;;;4.76;79.22
46464;BME280;32161;48.148;-1.554;2023-01-29T08:48:31;102526.94;;;4.78;79.36
46464;BME280;32161;48.148;-1.554;2023-01-29T08:51:00;102532.03;;;4.81;79.54
46464;BME280;32161;48.148;-1.554;2023-01-29T08:53:29;102531.41;;;4.87;79.29
46464;BME280;32161;48.148;-1.554;2023-01-29T08:55:57;102531.97;;;4.90;80.21
46464;BME280;32161;48.148;-1.554;2023-01-29T08:58:25;102535.38;;;4.93;80.55
46464;BME280;32161;48.148;-1.554;2023-01-29T09:00:54;102532.69;;;4.93;80.45
46464;BME280;32161;48.148;-1.554;2023-01-29T09:03:21;102531.22;;;4.98;80.02
46464;BME280;32161;48.148;-1.554;2023-01-29T09:05:49;102522.75;;;4.93;79.65
46464;BME280;32161;48.148;-1.554;2023-01-29T09:08:18;102530.81;;;4.93;79.20
46464;BME280;32161;48.148;-1.554;2023-01-29T09:10:45;102535.38;;;4.93;79.14
46464;BME280;32161;48.148;-1.554;2023-01-29T09:13:13;102547.00;;;4.93;79.42
46464;BME280;32161;48.148;-1.554;2023-01-29T09:15:40;102535.94;;;4.96;79.16
46464;BME280;32161;48.148;-1.554;2023-01-29T09:18:09;102546.09;;;5.02;78.90
46464;BME280;32161;48.148;-1.554;2023-01-29T09:20:37;102535.84;;;5.06;78.92
46464;BME280;32161;48.148;-1.554;2023-01-29T09:23:06;102545.22;;;5.11;78.63
46464;BME280;32161;48.148;-1.554;2023-01-29T09:25:34;102538.34;;;5.17;78.31
46464;BME280;32161;48.148;-1.554;2023-01-29T09:28:02;102545.13;;;5.21;78.46
46464;BME280;32161;48.148;-1.554;2023-01-29T09:30:31;102535.50;;;5.19;77.59
46464;BME280;32161;48.148;-1.554;2023-01-29T09:33:00;102532.59;;;5.30;77.28
46464;BME280;32161;48.148;-1.554;2023-01-29T09:35:29;102533.44;;;5.30;77.78
46464;BME280;32161;48.148;-1.554;2023-01-29T09:37:56;102538.94;;;5.38;77.36
46464;BME280;32161;48.148;-1.554;2023-01-29T09:40:28;102530.84;;;5.38;77.37
46464;BME280;32161;48.148;-1.554;2023-01-29T09:43:03;102538.41;;;5.35;77.46
46464;BME280;32161;48.148;-1.554;2023-01-29T09:45:33;102541.19;;;5.43;76.92
46464;BME280;32161;48.148;-1.554;2023-01-29T09:48:03;102534.41;;;5.39;76.45
46464;BME280;32161;48.148;-1.554;2023-01-29T09:50:37;102535.91;;;5.42;75.93
46464;BME280;32161;48.148;-1.554;2023-01-29T09:53:16;102534.88;;;5.34;76.74
46464;BME280;32161;48.148;-1.554;2023-01-29T09:55:50;102541.84;;;5.27;77.52
46464;BME280;32161;48.148;-1.554;2023-01-29T09:58:26;102539.84;;;5.29;77.38
46464;BME280;32161;48.148;-1.554;2023-01-29T10:01:07;102542.41;;;5.31;76.21
46464;BME280;32161;48.148;-1.554;2023-01-29T10:04:13;102533.00;;;5.35;76.58
46464;BME280;32161;48.148;-1.554;2023-01-29T10:06:59;102531.00;;;5.37;76.93
46464;BME280;32161;48.148;-1.554;2023-01-29T10:10:10;102533.38;;;5.40;77.55
46464;BME280;32161;48.148;-1.554;2023-01-29T10:12:56;102534.09;;;5.42;77.10
46464;BME280;32161;48.148;-1.554;2023-01-29T10:15:45;102537.47;;;5.44;76.40
46464;BME280;32161;48.148;-1.554;2023-01-29T10:18:50;102545.81;;;5.51;76.38
46464;BME280;32161;48.148;-1.554;2023-01-29T10:21:58;102551.88;;;5.53;76.09
46464;BME280;32161;48.148;-1.554;2023-01-29T10:24:37;102546.34;;;5.54;76.80
46464;BME280;32161;48.148;-1.554;2023-01-29T10:27:12;102549.44;;;5.59;76.55
46464;BME280;32161;48.148;-1.554;2023-01-29T10:29:43;102546.56;;;5.61;75.14
46464;BME280;32161;48.148;-1.554;2023-01-29T10:32:16;102536.19;;;5.66;75.05
46464;BME280;32161;48.148;-1.554;2023-01-29T10:34:48;102530.69;;;5.76;73.77
46464;BME280;32161;48.148;-1.554;2023-01-29T10:37:19;102539.81;;;5.75;74.47
46464;BME280;32161;48.148;-1.554;2023-01-29T10:39:49;102538.66;;;5.77;73.94
46464;BME280;32161;48.148;-1.554;2023-01-29T10:42:25;102538.13;;;5.74;74.19
46464;BME280;32161;48.148;-1.554;2023-01-29T10:45:15;102546.34;;;5.72;74.06
46464;BME280;32161;48.148;-1.554;2023-01-29T10:50:51;102536.81;;;5.78;75.00
46464;BME280;32161;48.148;-1.554;2023-01-29T10:53:37;102540.97;;;5.90;74.32
46464;BME280;32161;48.148;-1.554;2023-01-29T10:56:23;102524.38;;;6.03;72.85
46464;BME280;32161;48.148;-1.554;2023-01-29T10:59:00;102530.56;;;6.13;72.02
46464;BME280;32161;48.148;-1.554;2023-01-29T11:01:30;102526.25;;;6.02;73.13
46464;BME280;32161;48.148;-1.554;2023-01-29T11:04:01;102519.84;;;6.03;72.92
46464;BME280;32161;48.148;-1.554;2023-01-29T11:06:31;102523.31;;;5.96;72.66
46464;BME280;32161;48.148;-1.554;2023-01-29T11:09:06;102522.63;;;5.94;73.26
46464;BME280;32161;48.148;-1.554;2023-01-29T11:11:42;102520.78;;;5.94;73.44
46464;BME280;32161;48.148;-1.554;2023-01-29T11:14:14;102518.94;;;5.95;74.57
46464;BME280;32161;48.148;-1.554;2023-01-29T11:16:45;102518.16;;;6.02;73.88
46464;BME280;32161;48.148;-1.554;2023-01-29T11:19:13;102521.75;;;6.11;73.42
46464;BME280;32161;48.148;-1.554;2023-01-29T11:21:54;102520.53;;;6.05;73.40
46464;BME280;32161;48.148;-1.554;2023-01-29T11:24:24;102528.88;;;5.94;73.19
46464;BME280;32161;48.148;-1.554;2023-01-29T11:26:55;102518.81;;;5.86;74.08
46464;BME280;32161;48.148;-1.554;2023-01-29T11:29:36;102516.94;;;5.97;74.46
46464;BME280;32161;48.148;-1.554;2023-01-29T11:32:07;102509.03;;;6.03;74.79
46464;BME280;32161;48.148;-1.554;2023-01-29T11:34:57;102509.91;;;6.04;74.66
46464;BME280;32161;48.148;-1.554;2023-01-29T11:37:33;102517.22;;;6.11;75.33
46464;BME280;32161;48.148;-1.554;2023-01-29T11:40:37;102518.19;;;6.10;74.27
46464;BME280;32161;48.148;-1.554;2023-01-29T11:43:27;102511.66;;;6.13;74.11
46464;BME280;32161;48.148;-1.554;2023-01-29T11:45:57;102505.38;;;6.30;72.86
46464;BME280;32161;48.148;-1.554;2023-01-29T11:48:38;102492.38;;;6.34;73.21
46464;BME280;32161;48.148;-1.554;2023-01-29T11:51:07;102497.31;;;6.39;74.32
46464;BME280;32161;48.148;-1.554;2023-01-29T11:53:39;102493.38;;;6.33;73.01
46464;BME280;32161;48.148;-1.554;2023-01-29T11:56:20;102494.88;;;6.27;73.56
46464;BME280;32161;48.148;-1.554;2023-01-29T11:58:48;102493.50;;;6.23;74.87
46464;BME280;32161;48.148;-1.554;2023-01-29T12:01:29;102499.88;;;6.22;74.68
46464;BME280;32161;48.148;-1.554;2023-01-29T12:03:58;102484.97;;;6.36;73.99
46464;BME280;32161;48.148;-1.554;2023-01-29T12:06:33;102485.31;;;6.41;74.73
46464;BME280;32161;48.148;-1.554;2023-01-29T12:09:10;102482.81;;;6.40;75.13
46464;BME280;32161;48.148;-1.554;2023-01-29T12:11:43;102485.84;;;6.45;73.58
46464;BME280;32161;48.148;-1.554;2023-01-29T12:14:26;102482.19;;;6.46;73.09
46464;BME280;32161;48.148;-1.554;2023-01-29T12:17:00;102477.13;;;6.51;73.13
46464;BME280;32161;48.148;-1.554;2023-01-29T12:19:37;102463.13;;;6.55;72.96
46464;BME280;32161;48.148;-1.554;2023-01-29T12:22:16;102454.44;;;6.78;72.28
46464;BME280;32161;48.148;-1.554;2023-01-29T12:24:53;102460.06;;;6.84;71.43
46464;BME280;32161;48.148;-1.554;2023-01-29T12:27:29;102469.28;;;6.74;73.08
46464;BME280;32161;48.148;-1.554;2023-01-29T12:30:06;102455.94;;;6.72;72.49
46464;BME280;32161;48.148;-1.554;2023-01-29T12:32:44;102450.06;;;6.77;71.21
46464;BME280;32161;48.148;-1.554;2023-01-29T12:35:20;102449.38;;;6.83;71.34
46464;BME280;32161;48.148;-1.554;2023-01-29T12:37:55;102446.19;;;6.88;71.74
46464;BME280;32161;48.148;-1.554;2023-01-29T12:40:30;102441.28;;;6.83;71.41
46464;BME280;32161;48.148;-1.554;2023-01-29T12:43:10;102436.94;;;6.98;70.73
46464;BME280;32161;48.148;-1.554;2023-01-29T12:45:41;102429.97;;;6.88;71.76
46464;BME280;32161;48.148;-1.554;2023-01-29T12:48:13;102432.50;;;6.81;71.77
46464;BME280;32161;48.148;-1.554;2023-01-29T12:50:46;102435.91;;;6.91;71.51
46464;BME280;32161;48.148;-1.554;2023-01-29T12:53:24;102428.97;;;6.89;71.31
46464;BME280;32161;48.148;-1.554;2023-01-29T12:55:56;102416.66;;;6.94;71.18
46464;BME280;32161;48.148;-1.554;2023-01-29T12:58:32;102423.19;;;6.83;72.52
46464;BME280;32161;48.148;-1.554;2023-01-29T13:01:05;102412.03;;;6.70;72.85
46464;BME280;32161;48.148;-1.554;2023-01-29T13:03:48;102412.03;;;6.70;72.52
46464;BME280;32161;48.148;-1.554;2023-01-29T13:06:22;102414.94;;;6.77;72.87
46464;BME280;32161;48.148;-1.554;2023-01-29T13:08:56;102405.47;;;6.81;73.25
46464;BME280;32161;48.148;-1.554;2023-01-29T13:11:31;102407.50;;;6.87;73.23
46464;BME280;32161;48.148;-1.554;2023-01-29T13:14:11;102403.81;;;6.88;71.56
46464;BME280;32161;48.148;-1.554;2023-01-29T13:16:44;102397.72;;;6.94;72.17
46464;BME280;32161;48.148;-1.554;2023-01-29T13:19:23;102392.84;;;6.98;71.51
46464;BME280;32161;48.148;-1.554;2023-01-29T13:21:55;102385.25;;;7.01;72.13
46464;BME280;32161;48.148;-1.554;2023-01-29T13:24:31;102383.38;;;7.02;71.87
46464;BME280;32161;48.148;-1.554;2023-01-29T13:27:01;102375.09;;;6.95;70.68